createdAt,value
2018-07-12T00:02:00.667Z,17.33
2018-07-12T00:04:29.515Z,17.32
2018-07-12T00:06:58.385Z,17.31
2018-07-12T00:09:27.277Z,17.29
2018-07-12T00:11:56.142Z,17.26
2018-07-12T00:14:25.074Z,17.25
2018-07-12T00:16:53.919Z,17.23
2018-07-12T00:19:22.777Z,17.21
2018-07-12T00:21:51.635Z,17.20
2018-07-12T00:24:20.651Z,17.18
2018-07-12T00:26:49.524Z,17.19
2018-07-12T00:29:18.403Z,17.20
2018-07-12T00:31:47.326Z,17.21
2018-07-12T00:34:16.157Z,17.22
2018-07-12T00:36:45.011Z,17.22
2018-07-12T00:39:13.903Z,17.20
2018-07-12T00:41:42.857Z,17.19
2018-07-12T00:44:11.705Z,17.19
2018-07-12T00:46:40.568Z,17.18
2018-07-12T00:49:09.665Z,17.18
2018-07-12T00:51:38.490Z,17.18
2018-07-12T00:54:07.366Z,17.18
2018-07-12T00:56:36.212Z,17.19
2018-07-12T00:59:05.051Z,17.20
2018-07-12T01:01:33.952Z,17.20
2018-07-12T01:04:02.809Z,17.22
2018-07-12T01:06:31.669Z,17.21
2018-07-12T01:09:00.915Z,17.18
2018-07-12T01:11:29.775Z,17.13
2018-07-12T01:13:58.631Z,17.09
2018-07-12T01:16:27.510Z,17.06
2018-07-12T01:18:56.370Z,17.02
2018-07-12T01:21:25.236Z,17.02
2018-07-12T01:23:54.095Z,17.01
2018-07-12T01:26:23.016Z,16.98
2018-07-12T01:28:51.956Z,16.93
2018-07-12T01:31:20.814Z,16.88
2018-07-12T01:33:49.660Z,16.82
2018-07-12T01:36:18.616Z,16.76
2018-07-12T01:38:48.460Z,16.68
2018-07-12T01:41:17.353Z,16.63
2018-07-12T01:43:47.100Z,16.58
2018-07-12T01:46:15.952Z,16.54
2018-07-12T01:48:44.831Z,16.53
2018-07-12T01:51:13.689Z,16.53
2018-07-12T01:53:42.517Z,16.55
2018-07-12T01:56:11.516Z,16.57
2018-07-12T01:58:40.399Z,16.55
2018-07-12T02:01:09.271Z,16.55
2018-07-12T02:03:38.119Z,16.55
2018-07-12T02:06:07.005Z,16.53
2018-07-12T02:08:35.865Z,16.52
2018-07-12T02:11:04.755Z,16.48
2018-07-12T02:13:33.693Z,16.45
2018-07-12T02:16:02.575Z,16.42
2018-07-12T02:18:32.129Z,16.42
2018-07-12T02:21:01.038Z,16.39
2018-07-12T02:23:29.868Z,16.36
2018-07-12T02:25:58.704Z,16.34
2018-07-12T02:28:27.593Z,16.32
2018-07-12T02:30:56.454Z,16.30
2018-07-12T02:33:25.348Z,16.28
2018-07-12T02:35:54.203Z,16.23
2018-07-12T02:38:23.076Z,16.18
2018-07-12T02:40:52.016Z,16.15
2018-07-12T02:43:20.852Z,16.11
2018-07-12T02:45:49.711Z,16.07
2018-07-12T02:48:18.592Z,16.01
2018-07-12T02:50:47.457Z,15.98
2018-07-12T02:53:16.292Z,15.95
2018-07-12T02:55:45.245Z,15.91
2018-07-12T02:58:14.074Z,15.87
2018-07-12T03:00:42.945Z,15.83
2018-07-12T03:03:11.822Z,15.80
2018-07-12T03:05:40.692Z,15.81
2018-07-12T03:08:09.566Z,15.84
2018-07-12T03:10:38.427Z,15.84
2018-07-12T03:13:07.246Z,15.83
2018-07-12T03:15:37.050Z,15.83
2018-07-12T03:18:05.888Z,15.85
2018-07-12T03:23:09.786Z,15.76
2018-07-12T03:25:38.668Z,15.72
2018-07-12T03:28:07.494Z,15.68
2018-07-12T03:30:36.387Z,15.64
2018-07-12T03:33:05.225Z,15.62
2018-07-12T03:35:34.076Z,15.59
2018-07-12T03:38:02.958Z,15.58
2018-07-12T03:40:31.888Z,15.55
2018-07-12T03:43:00.731Z,15.54
2018-07-12T03:45:29.620Z,15.51
2018-07-12T03:47:58.512Z,15.49
2018-07-12T03:50:27.369Z,15.48
2018-07-12T03:52:56.247Z,15.48
2018-07-12T03:55:25.125Z,15.52
2018-07-12T03:57:53.971Z,15.58
2018-07-12T04:00:22.821Z,15.60
2018-07-12T04:02:51.665Z,15.64
2018-07-12T04:05:20.551Z,15.68
2018-07-12T04:07:49.667Z,15.69
2018-07-12T04:10:18.370Z,15.74
2018-07-12T04:12:47.259Z,15.79
2018-07-12T04:15:16.134Z,15.85
2018-07-12T04:17:44.983Z,15.91
2018-07-12T04:20:13.861Z,15.95
2018-07-12T04:22:42.722Z,15.95
2018-07-12T04:25:11.558Z,16.00
2018-07-12T04:27:40.453Z,16.04
2018-07-12T04:30:09.286Z,16.10
2018-07-12T04:32:38.136Z,16.16
2018-07-12T04:35:06.997Z,16.23
2018-07-12T04:37:35.956Z,16.30
2018-07-12T04:40:04.884Z,16.36
2018-07-12T04:42:33.788Z,16.39
2018-07-12T04:45:02.659Z,16.42
2018-07-12T04:47:31.566Z,16.50
2018-07-12T04:50:00.388Z,16.53
2018-07-12T04:52:29.209Z,16.59
2018-07-12T04:54:58.084Z,16.67
2018-07-12T04:57:26.920Z,16.78
2018-07-12T04:59:55.781Z,16.85
2018-07-12T05:02:24.652Z,16.92
2018-07-12T05:04:53.497Z,16.98
2018-07-12T05:07:22.354Z,17.07
2018-07-12T05:09:51.189Z,17.13
2018-07-12T05:12:20.024Z,17.22
2018-07-12T05:14:48.932Z,17.31
2018-07-12T05:17:17.759Z,17.38
2018-07-12T05:19:46.691Z,17.46
2018-07-12T05:22:15.552Z,17.42
2018-07-12T05:24:44.426Z,17.39
2018-07-12T05:27:13.588Z,17.38
2018-07-12T05:29:42.472Z,17.41
2018-07-12T05:32:11.421Z,17.40
2018-07-12T05:34:40.270Z,17.40
2018-07-12T05:37:10.968Z,17.40
2018-07-12T05:39:41.649Z,17.37
2018-07-12T05:42:12.568Z,17.40
2018-07-12T05:44:43.193Z,17.40
2018-07-12T05:47:13.904Z,17.33
2018-07-12T05:49:44.570Z,17.36
2018-07-12T05:52:15.275Z,17.26
2018-07-12T05:54:45.930Z,17.23
2018-07-12T05:57:16.585Z,17.26
2018-07-12T05:59:47.309Z,17.30
2018-07-12T06:02:21.748Z,17.39
2018-07-12T06:04:52.416Z,17.45
2018-07-12T06:07:28.364Z,17.50
2018-07-12T06:09:59.244Z,17.53
2018-07-12T06:12:29.916Z,17.55
2018-07-12T06:15:00.580Z,17.54
2018-07-12T06:17:31.267Z,17.54
2018-07-12T06:20:01.976Z,17.58
2018-07-12T06:22:32.639Z,17.65
2018-07-12T06:25:03.359Z,17.68
2018-07-12T06:27:34.006Z,17.81
2018-07-12T06:30:05.452Z,17.95
2018-07-12T06:32:36.181Z,17.96
2018-07-12T06:35:07.633Z,18.07
2018-07-12T06:37:38.489Z,18.21
2018-07-12T06:40:09.227Z,18.42
2018-07-12T06:42:39.976Z,18.62
2018-07-12T06:45:10.656Z,18.64
2018-07-12T06:47:41.466Z,18.69
2018-07-12T06:50:12.328Z,18.66
2018-07-12T06:52:43.144Z,18.61
2018-07-12T06:55:14.127Z,18.58
2018-07-12T06:57:44.901Z,18.55
2018-07-12T07:00:15.651Z,18.38
2018-07-12T07:02:46.329Z,18.32
2018-07-12T07:05:17.036Z,18.27
2018-07-12T07:07:47.816Z,18.37
2018-07-12T07:10:18.506Z,18.50
2018-07-12T07:12:49.290Z,18.62
2018-07-12T07:15:19.981Z,18.64
2018-07-12T07:17:50.730Z,18.60
2018-07-12T07:20:21.437Z,18.61
2018-07-12T07:22:52.129Z,18.57
2018-07-12T07:25:22.815Z,18.69
2018-07-12T07:27:53.497Z,18.76
2018-07-12T07:30:24.410Z,18.92
2018-07-12T07:32:55.198Z,18.82
2018-07-12T07:35:25.830Z,18.90
2018-07-12T07:37:56.535Z,18.97
2018-07-12T07:40:27.203Z,18.96
2018-07-12T07:42:58.049Z,18.86
2018-07-12T07:45:28.704Z,18.95
2018-07-12T07:47:59.390Z,18.91
2018-07-12T07:50:30.058Z,19.02
2018-07-12T07:53:00.869Z,19.14
2018-07-12T07:55:31.509Z,19.27
2018-07-12T07:58:02.308Z,19.45
2018-07-12T08:00:33.010Z,19.64
2018-07-12T08:03:03.777Z,19.70
2018-07-12T08:05:34.436Z,19.87
2018-07-12T08:08:05.252Z,20.19
2018-07-12T08:10:35.971Z,20.58
2018-07-12T08:13:06.836Z,21.12
2018-07-12T08:15:37.559Z,21.57
2018-07-12T08:18:08.335Z,21.62
2018-07-12T08:20:39.069Z,21.55
2018-07-12T08:23:09.877Z,21.59
2018-07-12T08:25:40.599Z,21.95
2018-07-12T08:28:25.183Z,22.41
2018-07-12T08:30:56.272Z,22.87
2018-07-12T08:33:27.030Z,23.26
2018-07-12T08:35:57.729Z,23.18
2018-07-12T08:38:28.397Z,23.11
2018-07-12T08:40:59.115Z,23.05
2018-07-12T08:43:30.134Z,23.04
2018-07-12T08:46:00.886Z,23.04
2018-07-12T08:48:31.616Z,23.15
2018-07-12T08:51:02.296Z,23.54
2018-07-12T08:53:32.984Z,23.63
2018-07-12T08:56:03.741Z,24.02
2018-07-12T08:58:34.432Z,24.17
2018-07-12T09:01:05.208Z,24.67
2018-07-12T09:03:35.860Z,24.55
2018-07-12T09:06:06.663Z,24.20
2018-07-12T09:08:37.340Z,23.91
2018-07-12T09:11:08.419Z,23.52
2018-07-12T09:13:39.166Z,23.35
2018-07-12T09:16:09.917Z,23.28
2018-07-12T09:18:40.560Z,23.37
2018-07-12T09:21:11.370Z,23.61
2018-07-12T09:23:42.075Z,23.78
2018-07-12T09:26:12.914Z,23.86
2018-07-12T09:28:43.635Z,24.16
2018-07-12T09:31:14.413Z,24.44
2018-07-12T09:33:45.197Z,24.83
2018-07-12T09:36:16.003Z,25.31
2018-07-12T09:38:48.111Z,25.60
2018-07-12T09:41:19.420Z,26.14
2018-07-12T09:43:50.675Z,26.60
2018-07-12T09:46:21.740Z,26.99
2018-07-12T09:48:53.088Z,27.20
2018-07-12T09:51:23.800Z,27.67
2018-07-12T09:53:54.483Z,27.48
2018-07-12T09:56:40.935Z,27.61
2018-07-12T09:59:11.570Z,27.77
2018-07-12T10:01:47.509Z,27.76
2018-07-12T10:04:18.251Z,27.68
2018-07-12T10:06:55.979Z,27.17
2018-07-12T10:09:31.766Z,27.02
2018-07-12T10:12:07.647Z,26.94
2018-07-12T10:14:43.361Z,26.97
2018-07-12T10:17:49.143Z,26.90
2018-07-12T10:20:19.958Z,26.66
2018-07-12T10:22:50.803Z,26.55
2018-07-12T10:25:21.550Z,26.71
2018-07-12T10:27:52.286Z,27.02
2018-07-12T10:30:23.018Z,27.16
2018-07-12T10:32:53.680Z,27.51
2018-07-12T10:35:24.395Z,27.78
2018-07-12T10:37:55.093Z,28.09
2018-07-12T10:40:25.800Z,28.24
2018-07-12T10:42:56.474Z,27.89
2018-07-12T10:45:27.171Z,27.91
2018-07-12T10:47:57.878Z,28.45
2018-07-12T10:50:28.578Z,28.70
2018-07-12T10:52:59.291Z,29.07
2018-07-12T10:55:29.979Z,29.46
2018-07-12T10:58:00.996Z,29.53
2018-07-12T11:00:31.762Z,29.88
2018-07-12T11:03:02.452Z,29.84
2018-07-12T11:05:33.203Z,29.52
2018-07-12T11:08:04.030Z,29.18
2018-07-12T11:10:34.843Z,29.02
2018-07-12T11:13:14.660Z,29.15
2018-07-12T11:15:46.462Z,29.15
2018-07-12T11:18:17.090Z,29.26
2018-07-12T11:20:47.832Z,29.48
2018-07-12T11:23:18.504Z,29.50
2018-07-12T11:25:49.322Z,29.49
2018-07-12T11:28:20.032Z,29.08
2018-07-12T11:30:50.875Z,28.82
2018-07-12T11:33:45.355Z,29.34
2018-07-12T11:36:16.119Z,30.01
2018-07-12T11:38:47.235Z,30.50
2018-07-12T11:41:17.992Z,30.75
2018-07-12T11:43:48.731Z,31.11
2018-07-12T11:46:19.656Z,31.03
2018-07-12T11:48:50.321Z,31.19
2018-07-12T11:51:21.061Z,31.23
2018-07-12T11:53:51.742Z,31.69
2018-07-12T11:56:22.429Z,31.97
2018-07-12T11:58:53.280Z,32.22
2018-07-12T12:01:24.030Z,32.11
2018-07-12T12:03:54.750Z,32.14
2018-07-12T12:06:25.471Z,32.22
2018-07-12T12:08:56.195Z,32.51
2018-07-12T12:11:33.511Z,32.54
2018-07-12T12:14:04.180Z,32.37
2018-07-12T12:16:34.900Z,32.17
2018-07-12T12:19:05.705Z,32.26
2018-07-12T12:21:36.329Z,32.42
2018-07-12T12:24:07.049Z,32.11
2018-07-12T12:26:37.821Z,31.80
2018-07-12T12:29:08.527Z,31.47
2018-07-12T12:31:39.255Z,30.92
2018-07-12T12:34:10.012Z,30.88
2018-07-12T12:36:40.823Z,31.16
2018-07-12T12:39:11.555Z,31.31
2018-07-12T12:41:42.220Z,31.49
2018-07-12T12:44:13.011Z,31.33
2018-07-12T12:46:43.703Z,31.23
2018-07-12T12:49:14.445Z,31.27
2018-07-12T12:51:45.167Z,31.13
2018-07-12T12:54:15.857Z,31.47
2018-07-12T12:56:46.589Z,31.83
2018-07-12T12:59:17.373Z,32.11
2018-07-12T13:01:48.142Z,32.29
2018-07-12T13:04:18.816Z,32.56
2018-07-12T13:06:49.486Z,32.80
2018-07-12T13:09:20.325Z,33.02
2018-07-12T13:11:50.982Z,33.37
2018-07-12T13:14:21.778Z,33.48
2018-07-12T13:16:52.467Z,33.65
2018-07-12T13:19:23.173Z,33.28
2018-07-12T13:21:53.953Z,33.04
2018-07-12T13:24:24.644Z,32.97
2018-07-12T13:26:55.420Z,33.26
2018-07-12T13:29:26.222Z,33.19
2018-07-12T13:31:57.089Z,33.40
2018-07-12T13:34:27.929Z,33.35
2018-07-12T13:36:58.691Z,32.88
2018-07-12T13:39:29.462Z,31.95
2018-07-12T13:42:00.091Z,31.61
2018-07-12T13:44:30.759Z,31.84
2018-07-12T13:47:01.432Z,32.12
2018-07-12T13:49:32.121Z,32.47
2018-07-12T13:52:02.741Z,32.58
2018-07-12T13:54:33.475Z,32.66
2018-07-12T13:57:04.258Z,32.60
2018-07-12T13:59:34.975Z,32.56
2018-07-12T14:02:05.699Z,32.54
2018-07-12T14:04:36.408Z,32.76
2018-07-12T14:07:07.076Z,32.68
2018-07-12T14:09:37.851Z,32.51
2018-07-12T14:12:09.533Z,32.43
2018-07-12T14:14:40.281Z,32.38
2018-07-12T14:17:11.003Z,32.05
2018-07-12T14:19:42.027Z,31.66
2018-07-12T14:22:13.029Z,31.65
2018-07-12T14:24:44.255Z,31.64
2018-07-12T14:27:15.099Z,32.04
2018-07-12T14:29:45.656Z,32.04
2018-07-12T14:32:16.354Z,31.82
2018-07-12T14:34:47.065Z,31.52
2018-07-12T14:37:17.781Z,31.12
2018-07-12T14:39:48.483Z,30.93
2018-07-12T14:42:19.440Z,31.02
2018-07-12T14:44:50.128Z,31.32
2018-07-12T14:47:20.816Z,31.47
2018-07-12T14:49:51.479Z,31.68
2018-07-12T14:52:22.202Z,31.85
2018-07-12T14:54:52.947Z,32.00
2018-07-12T14:57:23.727Z,32.11
2018-07-12T14:59:54.414Z,32.30
2018-07-12T15:02:25.167Z,32.47
2018-07-12T15:04:55.837Z,32.36
2018-07-12T15:07:26.201Z,32.66
2018-07-12T15:09:56.725Z,32.36
2018-07-12T15:12:27.493Z,32.32
2018-07-12T15:14:58.176Z,32.40
2018-07-12T15:17:28.932Z,32.37
2018-07-12T15:19:59.667Z,32.06
2018-07-12T15:22:30.411Z,32.03
2018-07-12T15:25:01.093Z,31.81
2018-07-12T15:27:31.773Z,31.92
2018-07-12T15:30:02.506Z,31.85
2018-07-12T15:32:33.181Z,31.65
2018-07-12T15:35:03.877Z,31.58
2018-07-12T15:37:34.606Z,31.51
2018-07-12T15:40:05.465Z,31.28
2018-07-12T15:42:36.411Z,30.95
2018-07-12T15:45:07.141Z,30.70
2018-07-12T15:47:37.880Z,30.77
2018-07-12T15:50:08.583Z,30.64
2018-07-12T15:52:39.300Z,30.65
2018-07-12T15:55:09.983Z,30.56
2018-07-12T15:57:40.679Z,30.47
2018-07-12T16:00:11.348Z,30.44
2018-07-12T16:02:42.027Z,30.55
2018-07-12T16:05:12.748Z,30.44
2018-07-12T16:07:43.502Z,30.32
2018-07-12T16:10:14.153Z,30.30
2018-07-12T16:12:44.886Z,30.11
2018-07-12T16:15:15.553Z,30.01
2018-07-12T16:17:46.220Z,29.87
2018-07-12T16:20:16.921Z,29.86
2018-07-12T16:22:47.612Z,29.70
2018-07-12T16:25:18.306Z,29.59
2018-07-12T16:27:49.116Z,29.53
2018-07-12T16:30:19.864Z,29.40
2018-07-12T16:32:50.517Z,29.45
2018-07-12T16:35:21.226Z,29.46
2018-07-12T16:37:51.946Z,29.18
2018-07-12T16:40:22.616Z,28.99
2018-07-12T16:42:53.332Z,28.83
2018-07-12T16:45:24.264Z,28.73
2018-07-12T16:47:54.914Z,28.57
2018-07-12T16:50:25.580Z,28.32
2018-07-12T16:52:56.233Z,28.18
2018-07-12T16:55:26.914Z,28.03
2018-07-12T16:57:57.599Z,27.90
2018-07-12T17:00:28.319Z,27.91
2018-07-12T17:02:59.029Z,27.85
2018-07-12T17:05:29.698Z,27.77
2018-07-12T17:08:00.360Z,27.68
2018-07-12T17:10:31.151Z,27.67
2018-07-12T17:13:01.827Z,27.72
2018-07-12T17:15:32.535Z,27.65
2018-07-12T17:18:03.209Z,27.44
2018-07-12T17:20:33.952Z,27.26
2018-07-12T17:23:04.684Z,27.12
2018-07-12T17:25:35.371Z,26.90
2018-07-12T17:28:06.107Z,26.77
2018-07-12T17:30:36.904Z,26.58
2018-07-12T17:33:07.695Z,26.44
2018-07-12T17:35:38.311Z,26.30
2018-07-12T17:38:09.011Z,26.17
2018-07-12T17:40:39.639Z,26.09
2018-07-12T17:43:10.342Z,26.04
2018-07-12T17:45:41.029Z,25.91
2018-07-12T17:48:11.773Z,25.85
2018-07-12T17:50:42.455Z,25.82
2018-07-12T17:53:43.723Z,25.76
2018-07-12T17:56:14.409Z,25.65
2018-07-12T17:58:45.098Z,25.66
2018-07-12T18:01:15.827Z,25.69
2018-07-12T18:03:46.525Z,25.66
2018-07-12T18:06:17.204Z,25.59
2018-07-12T18:08:47.899Z,25.56
2018-07-12T18:11:18.599Z,25.54
2018-07-12T18:13:49.504Z,25.54
2018-07-12T18:16:20.803Z,25.44
2018-07-12T18:18:51.421Z,25.37
2018-07-12T18:21:22.110Z,25.27
2018-07-12T18:23:52.866Z,25.19
2018-07-12T18:26:24.072Z,25.08
2018-07-12T18:28:54.756Z,24.98
2018-07-12T18:31:25.464Z,24.81
2018-07-12T18:33:56.131Z,24.75
2018-07-12T18:36:26.832Z,24.64
2018-07-12T18:38:57.473Z,24.50
2018-07-12T18:41:28.752Z,24.42
2018-07-12T18:43:59.448Z,24.29
2018-07-12T18:46:30.120Z,24.15
2018-07-12T18:49:00.784Z,24.03
2018-07-12T18:51:31.497Z,23.94
2018-07-12T18:54:02.203Z,23.86
2018-07-12T18:56:32.908Z,23.68
2018-07-12T18:59:03.553Z,23.54
2018-07-12T19:01:34.312Z,23.37
2018-07-12T19:04:04.958Z,23.16
2018-07-12T19:06:35.671Z,23.00
2018-07-12T19:09:09.034Z,22.91
2018-07-12T19:11:39.700Z,22.77
2018-07-12T19:14:10.411Z,22.76
2018-07-12T19:16:41.111Z,22.66
2018-07-12T19:19:11.808Z,22.56
2018-07-12T19:21:42.488Z,22.52
2018-07-12T19:24:13.244Z,22.50
2018-07-12T19:26:43.901Z,22.50
2018-07-12T19:29:14.672Z,22.44
2018-07-12T19:31:45.354Z,22.41
2018-07-12T19:34:16.106Z,22.35
2018-07-12T19:36:46.843Z,22.26
2018-07-12T19:39:17.533Z,22.24
2018-07-12T19:41:48.256Z,22.17
2018-07-12T19:44:19.009Z,22.15
2018-07-12T19:46:49.730Z,22.15
2018-07-12T19:49:20.426Z,22.18
2018-07-12T19:51:56.315Z,22.12
2018-07-12T19:54:28.310Z,22.09
2018-07-12T19:57:13.849Z,22.07
2018-07-12T19:59:44.527Z,22.05
2018-07-12T20:02:15.304Z,22.06
2018-07-12T20:04:46.108Z,22.06
2018-07-12T20:07:16.939Z,22.04
2018-07-12T20:09:48.430Z,22.05
2018-07-12T20:12:19.193Z,22.06
2018-07-12T20:14:50.528Z,22.05
2018-07-12T20:17:21.244Z,22.04
2018-07-12T20:19:51.942Z,22.02
2018-07-12T20:22:22.709Z,22.00
2018-07-12T20:24:53.424Z,21.98
2018-07-12T20:27:24.109Z,21.97
2018-07-12T20:29:54.813Z,21.94
2018-07-12T20:32:25.487Z,21.91
2018-07-12T20:34:56.855Z,21.87
2018-07-12T20:37:27.596Z,21.83
2018-07-12T20:39:58.317Z,21.78
2018-07-12T20:42:29.033Z,21.74
2018-07-12T20:44:59.793Z,21.67
2018-07-12T20:47:30.525Z,21.61
2018-07-12T20:50:01.447Z,21.55
2018-07-12T20:52:32.161Z,21.48
2018-07-12T20:55:02.887Z,21.42
2018-07-12T20:57:33.560Z,21.37
2018-07-12T21:00:04.402Z,21.31
2018-07-12T21:02:35.120Z,21.25
2018-07-12T21:05:05.871Z,21.18
2018-07-12T21:07:36.564Z,21.12
2018-07-12T21:10:08.254Z,21.04
2018-07-12T21:12:38.920Z,20.97
2018-07-12T21:15:10.185Z,20.91
2018-07-12T21:17:40.861Z,20.86
2018-07-12T21:20:11.517Z,20.78
2018-07-12T21:22:42.188Z,20.70
2018-07-12T21:25:12.966Z,20.65
2018-07-12T21:27:43.631Z,20.66
2018-07-12T21:30:14.336Z,20.69
2018-07-12T21:32:44.987Z,20.73
2018-07-12T21:35:46.171Z,20.71
2018-07-12T21:38:16.803Z,20.66
2018-07-12T21:40:47.530Z,20.62
2018-07-12T21:43:18.239Z,20.55
2018-07-12T21:45:48.926Z,20.50
2018-07-12T21:48:19.584Z,20.45
2018-07-12T21:50:50.265Z,20.37
2018-07-12T21:53:20.964Z,20.33
2018-07-12T21:55:51.295Z,20.29
2018-07-12T21:58:21.843Z,20.28
2018-07-12T22:00:52.600Z,20.27
2018-07-12T22:03:23.381Z,20.23
2018-07-12T22:05:54.126Z,20.19
2018-07-12T22:08:28.096Z,20.20
2018-07-12T22:11:00.028Z,20.22
2018-07-12T22:13:31.591Z,20.23
2018-07-12T22:16:02.428Z,20.27
2018-07-12T22:18:33.203Z,20.32
2018-07-12T22:21:03.955Z,20.37
2018-07-12T22:23:34.712Z,20.40
2018-07-12T22:26:05.429Z,20.41
2018-07-12T22:28:36.123Z,20.36
2018-07-12T22:31:06.874Z,20.37
2018-07-12T22:33:37.562Z,20.39
2018-07-12T22:36:08.252Z,20.39
2018-07-12T22:38:38.930Z,20.41
2018-07-12T22:41:09.626Z,20.41
2018-07-12T22:43:40.292Z,20.37
2018-07-12T22:46:10.963Z,20.33
2018-07-12T22:48:41.715Z,20.30
2018-07-12T22:51:12.527Z,20.28
2018-07-12T22:53:43.835Z,20.27
2018-07-12T22:56:14.520Z,20.24
2018-07-12T22:58:45.231Z,20.23
2018-07-12T23:01:15.922Z,20.20
2018-07-12T23:03:46.586Z,20.19
2018-07-12T23:06:17.261Z,20.20
2018-07-12T23:08:47.983Z,20.17
2018-07-12T23:11:18.655Z,20.18
2018-07-12T23:13:49.439Z,20.14
2018-07-12T23:16:20.165Z,20.09
2018-07-12T23:18:51.718Z,20.07
2018-07-12T23:21:22.358Z,20.03
2018-07-12T23:23:53.011Z,19.99
2018-07-12T23:26:23.723Z,19.94
2018-07-12T23:28:54.354Z,19.88
2018-07-12T23:31:25.040Z,19.82
2018-07-12T23:33:55.750Z,19.75
2018-07-12T23:36:26.449Z,19.71
2018-07-12T23:38:57.078Z,19.68
2018-07-12T23:41:27.768Z,19.65
2018-07-12T23:43:58.456Z,19.63
2018-07-12T23:46:29.156Z,19.61
2018-07-12T23:48:59.844Z,19.59
2018-07-12T23:51:30.553Z,19.57
2018-07-12T23:54:01.231Z,19.52
2018-07-12T23:56:32.036Z,19.49
2018-07-12T23:59:02.689Z,19.50
